Time;durP1;ratioP1;P1;durP2;ratioP2;P2;SDS_P1;SDS_P2;PMS_P1;PMS_P2;Temp;Humidity;BMP_temperature;BMP_pressure;BME280_temperature;BME280_humidity;BME280_pressure;Samples;Min_cycle;Max_cycle;Signal;HPM_P1;HPM_P2
2022/03/18 00:02:09;;;;;;;15.68;6.63;;;2.30;99.90;;;;;;5050422;28;20048;-72
2022/03/18 00:04:35;;;;;;;18.77;7.22;;;2.30;99.90;;;;;;5085130;28;20098;-72
2022/03/18 00:07:01;;;;;;;17.98;8.00;;;2.30;99.90;;;;;;5044494;28;20038;-72
2022/03/18 00:09:27;;;;;;;19.95;7.85;;;2.30;99.90;;;;;;5064658;28;20571;-72
2022/03/18 00:11:53;;;;;;;19.23;7.05;;;2.30;99.90;;;;;;5031902;28;20375;-72
2022/03/18 00:14:22;;;;;;;17.25;7.47;;;2.30;99.90;;;;;;5032729;28;20044;-72
2022/03/18 00:16:47;;;;;;;22.48;9.95;;;2.30;99.90;;;;;;5031381;28;20501;-72
2022/03/18 00:19:14;;;;;;;21.23;8.18;;;2.30;99.90;;;;;;5031612;28;20128;-72
2022/03/18 00:21:39;;;;;;;19.40;8.40;;;2.30;99.90;;;;;;5064310;28;20058;-72
2022/03/18 00:24:06;;;;;;;14.82;8.07;;;2.30;99.90;;;;;;5031445;28;20049;-72
2022/03/18 00:26:32;;;;;;;18.33;6.93;;;2.40;99.90;;;;;;5064471;28;20073;-72
2022/03/18 00:28:59;;;;;;;17.90;7.25;;;2.40;99.90;;;;;;5032578;28;20376;-72
2022/03/18 00:31:25;;;;;;;19.38;8.57;;;2.40;99.90;;;;;;5032474;28;20088;-72
2022/03/18 00:33:50;;;;;;;16.88;7.78;;;2.30;99.90;;;;;;5029891;28;20453;-72
2022/03/18 00:36:16;;;;;;;14.90;6.57;;;2.40;99.90;;;;;;5064388;28;20116;-72
2022/03/18 00:38:42;;;;;;;15.90;6.72;;;2.40;99.90;;;;;;5031095;28;20045;-72
2022/03/18 00:41:08;;;;;;;16.30;6.45;;;2.30;99.90;;;;;;5031043;28;20052;-72
2022/03/18 00:43:35;;;;;;;16.23;8.13;;;2.30;99.90;;;;;;5064482;28;20049;-72
2022/03/18 00:46:00;;;;;;;17.05;7.18;;;2.30;99.90;;;;;;5030968;28;20056;-72
2022/03/18 00:53:55;;;;;;;19.73;7.53;;;2.50;99.90;;;;;;5031952;28;20076;-72
2022/03/18 00:56:21;;;;;;;15.48;6.50;;;2.50;99.90;;;;;;5032209;28;20072;-72
2022/03/18 00:58:47;;;;;;;12.73;7.03;;;2.40;99.90;;;;;;5047180;28;20551;-72
2022/03/18 01:01:12;;;;;;;18.02;7.57;;;2.40;99.90;;;;;;5031901;28;20041;-72
2022/03/18 01:03:38;;;;;;;13.68;7.35;;;2.40;99.90;;;;;;5061867;28;20083;-72
2022/03/18 01:06:04;;;;;;;17.55;7.97;;;2.40;99.90;;;;;;5064443;28;20046;-72
2022/03/18 01:08:30;;;;;;;17.70;8.32;;;2.40;99.90;;;;;;5051795;28;20124;-72
2022/03/18 01:10:56;;;;;;;18.13;8.05;;;2.40;99.90;;;;;;5051956;28;20397;-72
2022/03/18 01:13:23;;;;;;;19.52;8.30;;;2.40;99.90;;;;;;5051797;28;20041;-72
2022/03/18 01:15:49;;;;;;;19.10;8.88;;;2.40;99.90;;;;;;5083999;28;20493;-72
2022/03/18 01:18:15;;;;;;;18.52;8.07;;;2.40;99.90;;;;;;5050267;28;20045;-72
2022/03/18 01:20:41;;;;;;;20.42;8.68;;;2.40;99.90;;;;;;5067192;28;20059;-72
2022/03/18 01:23:07;;;;;;;18.88;8.68;;;2.50;99.90;;;;;;5067029;28;20132;-72
2022/03/18 01:25:34;;;;;;;23.67;8.68;;;2.50;99.90;;;;;;5067138;28;20049;-72
2022/03/18 01:28:04;;;;;;;30.20;8.95;;;2.50;99.90;;;;;;5083840;28;20091;-72
2022/03/18 01:30:30;;;;;;;25.13;9.45;;;2.60;99.90;;;;;;5051557;28;20045;-72
2022/03/18 01:33:00;;;;;;;23.48;8.30;;;2.60;99.90;;;;;;5047834;28;20466;-72
2022/03/18 01:35:26;;;;;;;15.80;7.68;;;2.60;99.90;;;;;;5083922;28;20041;-72
2022/03/18 01:37:52;;;;;;;23.08;8.77;;;2.60;99.90;;;;;;5067349;28;20400;-72
2022/03/18 01:40:18;;;;;;;23.40;8.25;;;2.60;99.90;;;;;;5051530;28;20045;-72
2022/03/18 01:42:45;;;;;;;19.75;9.27;;;2.60;99.90;;;;;;5050137;28;20049;-72
2022/03/18 01:45:11;;;;;;;20.33;8.85;;;2.70;99.90;;;;;;5051559;28;20048;-72
2022/03/18 01:47:42;;;;;;;18.58;8.57;;;2.80;99.90;;;;;;5066783;28;20103;-72
2022/03/18 01:50:10;;;;;;;14.70;8.65;;;2.80;99.90;;;;;;5051459;28;20041;-73
2022/03/18 01:52:37;;;;;;;20.63;7.55;;;2.80;99.90;;;;;;5084627;28;20488;-73
2022/03/18 01:55:04;;;;;;;17.58;8.23;;;2.70;99.90;;;;;;5084614;28;20041;-73
2022/03/18 01:57:30;;;;;;;20.02;7.97;;;2.70;99.90;;;;;;5051028;28;20080;-72
2022/03/18 01:59:56;;;;;;;22.25;8.05;;;2.70;99.90;;;;;;5052164;28;20080;-72
2022/03/18 02:02:22;;;;;;;15.32;7.13;;;2.80;99.90;;;;;;5050261;28;20052;-72
2022/03/18 02:04:49;;;;;;;16.90;8.00;;;2.80;99.90;;;;;;5052188;28;20045;-72
2022/03/18 02:07:16;;;;;;;16.58;8.15;;;2.80;99.90;;;;;;5042163;28;20046;-72
2022/03/18 02:09:44;;;;;;;17.45;7.60;;;2.80;99.90;;;;;;5030932;28;20478;-72
2022/03/18 02:12:11;;;;;;;14.32;7.85;;;2.80;99.90;;;;;;5035283;28;20041;-72
2022/03/18 02:14:40;;;;;;;15.90;7.97;;;2.80;99.90;;;;;;5034696;28;20052;-72
2022/03/18 02:17:08;;;;;;;14.93;7.22;;;2.80;99.90;;;;;;5036067;28;20041;-72
2022/03/18 02:19:35;;;;;;;12.75;6.88;;;2.80;99.90;;;;;;5034476;28;20077;-72
2022/03/18 02:22:13;;;;;;;12.77;7.40;;;2.80;99.90;;;;;;5067755;28;20092;-72
2022/03/18 02:24:40;;;;;;;12.68;7.75;;;2.70;99.90;;;;;;5035667;28;20389;-72
2022/03/18 02:27:07;;;;;;;15.75;8.48;;;2.70;99.90;;;;;;5067729;28;20044;-72
2022/03/18 02:29:33;;;;;;;16.23;9.07;;;2.70;99.90;;;;;;5035822;28;20072;-72
2022/03/18 02:32:01;;;;;;;17.17;8.15;;;2.70;99.90;;;;;;5032077;28;20048;-72
2022/03/18 02:34:28;;;;;;;16.52;7.95;;;2.60;99.90;;;;;;5050721;28;20099;-72
2022/03/18 02:36:54;;;;;;;15.00;9.32;;;2.60;99.90;;;;;;5035476;28;20033;-72
2022/03/18 02:39:20;;;;;;;15.45;7.47;;;2.60;99.90;;;;;;5036688;28;20694;-72
2022/03/18 02:41:46;;;;;;;11.93;7.20;;;2.50;99.90;;;;;;5050956;28;20095;-73
2022/03/18 02:44:11;;;;;;;12.38;8.07;;;2.50;99.90;;;;;;5035194;28;20046;-73
2022/03/18 02:46:37;;;;;;;14.50;8.30;;;2.50;99.90;;;;;;5034294;28;20252;-72
2022/03/18 02:49:04;;;;;;;14.57;7.95;;;2.50;99.90;;;;;;5035125;28;20042;-73
2022/03/18 02:51:31;;;;;;;14.32;7.13;;;2.50;99.90;;;;;;5035401;28;20037;-72
2022/03/18 02:53:57;;;;;;;13.45;7.97;;;2.40;99.90;;;;;;5035044;28;20102;-72
2022/03/18 02:56:23;;;;;;;22.05;9.55;;;2.40;99.90;;;;;;5034084;28;20056;-72
2022/03/18 02:58:50;;;;;;;14.35;7.35;;;2.40;99.90;;;;;;5067262;28;20402;-72
2022/03/18 03:01:16;;;;;;;24.25;9.00;;;2.40;99.90;;;;;;5035309;28;20041;-72
2022/03/18 03:03:41;;;;;;;15.85;8.10;;;2.40;99.90;;;;;;5064847;28;20845;-72
2022/03/18 03:08:52;;;;;;;17.05;8.40;;;2.30;99.90;;;;;;5053270;28;20489;-73
2022/03/18 03:11:17;;;;;;;14.98;7.22;;;2.20;99.90;;;;;;5053577;28;20041;-72
2022/03/18 03:13:43;;;;;;;11.90;7.00;;;2.20;99.90;;;;;;5084139;28;20045;-72
2022/03/18 03:16:09;;;;;;;11.48;7.50;;;2.10;99.90;;;;;;5087304;28;20044;-72
2022/03/18 03:18:36;;;;;;;19.23;8.57;;;2.10;99.90;;;;;;5087120;28;20072;-72
2022/03/18 03:21:02;;;;;;;16.27;8.02;;;2.00;99.90;;;;;;5054388;28;20057;-72
2022/03/18 03:23:28;;;;;;;15.45;8.05;;;2.00;99.90;;;;;;5053268;28;20389;-72
2022/03/18 03:25:54;;;;;;;15.95;7.93;;;2.00;99.90;;;;;;5053084;28;20048;-72
2022/03/18 03:28:20;;;;;;;16.15;9.75;;;2.00;99.90;;;;;;5053262;28;20421;-72
2022/03/18 03:30:46;;;;;;;23.48;9.68;;;2.00;99.90;;;;;;5053265;28;20044;-72
2022/03/18 03:33:13;;;;;;;19.77;10.98;;;1.90;99.90;;;;;;5084775;28;20064;-72
2022/03/18 03:35:39;;;;;;;20.85;10.82;;;2.00;99.90;;;;;;5086514;28;20503;-73
2022/03/18 03:38:06;;;;;;;41.80;11.98;;;2.00;99.90;;;;;;5054299;28;20068;-72
2022/03/18 03:40:32;;;;;;;18.83;9.90;;;2.00;99.90;;;;;;5053140;28;20124;-72
2022/03/18 03:42:58;;;;;;;14.13;7.85;;;1.90;99.90;;;;;;5054250;28;20049;-72
2022/03/18 03:45:24;;;;;;;23.13;10.98;;;1.90;99.90;;;;;;5054164;28;20043;-72
2022/03/18 03:47:51;;;;;;;23.88;12.13;;;1.80;99.90;;;;;;5054049;28;20076;-72
2022/03/18 03:50:17;;;;;;;17.42;8.95;;;1.80;99.90;;;;;;5086321;28;20051;-72
2022/03/18 03:52:44;;;;;;;17.70;8.10;;;1.90;99.90;;;;;;5052897;28;20049;-72
2022/03/18 03:55:12;;;;;;;17.95;9.85;;;1.80;99.90;;;;;;5052924;28;20410;-72
2022/03/18 03:57:39;;;;;;;19.23;9.02;;;1.80;99.90;;;;;;5086306;28;20107;-72
2022/03/18 04:00:10;;;;;;;19.50;11.07;;;1.70;99.90;;;;;;5052681;28;20067;-72
2022/03/18 04:02:37;;;;;;;20.08;12.23;;;1.70;99.90;;;;;;5051623;28;20369;-72
2022/03/18 04:05:07;;;;;;;24.08;12.85;;;1.70;99.90;;;;;;5068389;28;20060;-72
2022/03/18 04:07:36;;;;;;;29.00;13.30;;;1.80;99.90;;;;;;5052599;28;20045;-74
2022/03/18 04:10:04;;;;;;;28.50;16.15;;;1.80;99.90;;;;;;5036983;28;20070;-71
2022/03/18 04:12:32;;;;;;;24.55;14.43;;;1.90;99.90;;;;;;5054137;28;20046;-72
2022/03/18 04:15:02;;;;;;;23.17;11.65;;;1.90;99.90;;;;;;5054615;28;20033;-72
2022/03/18 04:17:36;;;;;;;22.88;11.98;;;1.90;99.90;;;;;;5054632;28;20048;-72
2022/03/18 04:20:05;;;;;;;17.02;10.65;;;1.90;99.90;;;;;;5053417;28;20132;-71
2022/03/18 04:22:32;;;;;;;19.48;10.00;;;1.90;99.90;;;;;;5055339;28;20123;-70
2022/03/18 04:24:57;;;;;;;20.77;10.65;;;1.80;99.90;;;;;;5055689;28;20463;-70
2022/03/18 04:27:25;;;;;;;19.20;11.82;;;1.80;99.90;;;;;;5053803;28;20548;-76
2022/03/18 04:29:52;;;;;;;23.17;13.10;;;1.70;99.90;;;;;;5054851;28;20033;-73
2022/03/18 04:32:18;;;;;;;26.73;13.60;;;1.70;99.90;;;;;;5052890;28;20068;-74
2022/03/18 04:34:44;;;;;;;22.75;13.48;;;1.70;99.90;;;;;;5055820;28;20048;-73
2022/03/18 04:37:10;;;;;;;21.10;12.05;;;1.70;99.90;;;;;;5037721;28;20049;-72
2022/03/18 04:39:36;;;;;;;18.02;10.55;;;1.70;99.90;;;;;;5054304;28;20051;-72
2022/03/18 04:42:01;;;;;;;26.60;12.30;;;1.60;99.90;;;;;;5054615;28;20123;-73
2022/03/18 04:44:27;;;;;;;29.92;15.05;;;1.60;99.90;;;;;;5052259;28;20194;-72
2022/03/18 04:46:53;;;;;;;25.17;15.75;;;1.50;99.90;;;;;;5051598;28;20045;-72
2022/03/18 04:49:19;;;;;;;30.27;17.35;;;1.60;99.90;;;;;;5051767;28;20106;-72
2022/03/18 04:51:45;;;;;;;28.85;17.45;;;1.70;99.90;;;;;;5052699;28;20032;-72
2022/03/18 04:54:11;;;;;;;27.38;17.13;;;1.80;99.90;;;;;;5052901;28;20072;-72
2022/03/18 04:59:21;;;;;;;28.77;17.15;;;1.90;99.90;;;;;;5052746;28;20041;-72
2022/03/18 05:01:47;;;;;;;31.90;19.00;;;2.00;99.90;;;;;;5050640;28;20041;-72
2022/03/18 05:04:13;;;;;;;32.50;19.17;;;2.00;99.90;;;;;;5050575;28;20127;-72
2022/03/18 05:06:39;;;;;;;30.83;19.23;;;2.00;99.90;;;;;;5051453;28;20449;-72
2022/03/18 05:09:05;;;;;;;27.60;17.50;;;2.00;99.90;;;;;;5052619;28;20040;-72
2022/03/18 05:11:31;;;;;;;34.75;18.88;;;2.00;99.90;;;;;;5052376;28;20048;-72
2022/03/18 05:14:00;;;;;;;23.40;15.02;;;2.10;99.90;;;;;;5050721;28;20265;-72
2022/03/18 05:16:26;;;;;;;26.20;14.57;;;2.10;99.90;;;;;;5083978;28;20507;-72
2022/03/18 05:18:52;;;;;;;19.23;11.63;;;2.00;99.90;;;;;;5051914;28;20048;-73
2022/03/18 05:21:19;;;;;;;19.05;11.38;;;1.90;99.90;;;;;;5051570;28;20413;-73
2022/03/18 05:23:46;;;;;;;24.10;14.75;;;1.80;99.90;;;;;;5083935;28;20492;-72
2022/03/18 05:26:13;;;;;;;28.50;14.25;;;1.70;99.90;;;;;;5083886;28;20155;-72
2022/03/18 05:28:39;;;;;;;32.78;14.00;;;1.70;99.90;;;;;;5050297;28;20037;-72
2022/03/18 05:31:05;;;;;;;21.48;13.88;;;1.60;99.90;;;;;;5053179;28;20037;-72
2022/03/18 05:33:30;;;;;;;32.83;16.77;;;1.60;99.90;;;;;;5081489;28;20041;-72
2022/03/18 05:35:56;;;;;;;256.83;30.65;;;1.50;99.90;;;;;;5051739;28;20091;-72
2022/03/18 05:38:22;;;;;;;25.92;13.85;;;1.50;99.90;;;;;;5051550;28;20044;-72
2022/03/18 05:40:48;;;;;;;29.52;17.80;;;1.50;99.90;;;;;;5083705;28;20045;-72
2022/03/18 05:43:14;;;;;;;32.13;19.48;;;1.40;99.90;;;;;;5051903;28;20041;-72
2022/03/18 05:45:40;;;;;;;26.50;17.33;;;1.50;99.90;;;;;;5084728;28;20408;-72
2022/03/18 05:48:07;;;;;;;25.92;16.80;;;1.50;99.90;;;;;;5054373;28;20041;-72
2022/03/18 05:50:34;;;;;;;29.67;18.92;;;1.50;99.90;;;;;;5054269;28;20041;-72
2022/03/18 05:52:59;;;;;;;26.23;16.98;;;1.60;99.90;;;;;;5055363;28;20068;-72
2022/03/18 05:55:26;;;;;;;34.45;19.10;;;1.50;99.90;;;;;;5088712;28;20174;-74
2022/03/18 05:57:53;;;;;;;19.20;11.13;;;1.50;99.90;;;;;;5056630;28;20075;-75
2022/03/18 06:00:20;;;;;;;26.23;18.80;;;1.50;99.90;;;;;;5073851;28;20083;-70
2022/03/18 06:02:46;;;;;;;32.88;19.75;;;1.40;99.90;;;;;;5054642;28;20535;-71
2022/03/18 06:05:12;;;;;;;20.35;14.15;;;1.40;99.90;;;;;;5089370;28;20052;-71
2022/03/18 06:07:38;;;;;;;21.25;15.48;;;1.40;99.90;;;;;;5080433;28;20044;-72
2022/03/18 06:12:49;;;;;;;20.83;13.75;;;1.40;99.90;;;;;;5056265;28;20040;-70
2022/03/18 06:15:15;;;;;;;18.02;13.45;;;1.40;99.90;;;;;;5056157;28;20401;-71
2022/03/18 06:17:41;;;;;;;25.42;14.98;;;1.40;99.90;;;;;;5038467;28;20040;-71
2022/03/18 06:20:07;;;;;;;20.10;13.60;;;1.50;99.90;;;;;;5055282;28;20155;-71
2022/03/18 06:22:33;;;;;;;21.08;14.60;;;1.50;99.90;;;;;;5055993;28;20049;-71
2022/03/18 06:24:59;;;;;;;23.50;15.35;;;1.50;99.90;;;;;;5055983;28;20048;-71
2022/03/18 06:27:25;;;;;;;24.38;15.18;;;1.50;99.90;;;;;;5054889;28;20051;-71
2022/03/18 06:29:51;;;;;;;34.40;19.00;;;1.60;99.90;;;;;;5054022;28;20080;-72
2022/03/18 06:32:17;;;;;;;29.55;18.58;;;1.80;99.90;;;;;;5052629;28;20102;-71
2022/03/18 06:34:43;;;;;;;24.95;15.60;;;2.00;99.90;;;;;;5054872;28;20040;-70
2022/03/18 06:37:08;;;;;;;19.48;14.45;;;2.20;99.90;;;;;;5053293;28;20098;-70
2022/03/18 06:39:34;;;;;;;22.40;14.85;;;2.30;99.90;;;;;;5057921;28;20045;-70
2022/03/18 06:42:02;;;;;;;20.25;13.23;;;2.40;99.90;;;;;;5054710;28;20512;-71
2022/03/18 06:44:28;;;;;;;18.23;11.13;;;2.60;99.90;;;;;;5053594;28;20196;-71
2022/03/18 06:46:54;;;;;;;14.40;10.48;;;2.70;99.90;;;;;;5053536;28;20052;-71
2022/03/18 06:49:20;;;;;;;13.25;11.20;;;2.80;99.90;;;;;;5054645;28;20041;-71
2022/03/18 06:51:46;;;;;;;13.40;10.65;;;3.00;99.90;;;;;;5053579;28;20041;-71
2022/03/18 06:54:12;;;;;;;16.90;10.63;;;3.30;99.90;;;;;;5053188;28;20071;-71
2022/03/18 06:56:38;;;;;;;15.20;10.38;;;3.50;99.90;;;;;;5052454;28;20485;-71
2022/03/18 06:59:04;;;;;;;14.65;10.98;;;3.70;99.90;;;;;;5054526;28;20134;-70
2022/03/18 07:01:29;;;;;;;12.52;8.60;;;3.90;99.90;;;;;;5058137;28;20045;-70
2022/03/18 07:03:55;;;;;;;12.60;8.55;;;4.10;99.90;;;;;;5054739;28;20080;-70
2022/03/18 07:06:21;;;;;;;14.35;9.52;;;4.10;99.90;;;;;;5053434;28;20553;-72
2022/03/18 07:08:47;;;;;;;17.33;11.02;;;4.10;99.90;;;;;;5056139;28;20124;-72
2022/03/18 07:11:13;;;;;;;20.55;14.15;;;4.20;99.90;;;;;;5056675;28;20033;-75
2022/03/18 07:13:45;;;;;;;20.58;15.70;;;4.30;99.90;;;;;;5088310;28;20040;-74
2022/03/18 07:18:55;;;;;;;24.38;17.88;;;4.60;99.90;;;;;;5055062;28;20412;-73
2022/03/18 07:21:21;;;;;;;20.48;14.43;;;4.70;99.90;;;;;;5055768;28;20128;-73
2022/03/18 07:23:47;;;;;;;25.08;17.02;;;4.90;99.90;;;;;;5055034;28;20049;-72
2022/03/18 07:26:13;;;;;;;27.88;18.13;;;5.00;99.90;;;;;;5071596;28;20102;-73
2022/03/18 07:28:39;;;;;;;24.70;17.08;;;5.20;99.90;;;;;;5055974;28;20041;-73
2022/03/18 07:31:05;;;;;;;27.60;17.98;;;5.20;99.90;;;;;;5056267;28;20040;-73
2022/03/18 07:33:31;;;;;;;24.98;18.65;;;5.40;99.90;;;;;;5053296;28;20036;-72
2022/03/18 07:35:56;;;;;;;23.73;16.65;;;5.60;99.90;;;;;;5054733;28;20547;-73
2022/03/18 07:38:22;;;;;;;26.13;18.13;;;5.80;99.90;;;;;;5056086;28;20051;-73
2022/03/18 07:40:48;;;;;;;27.70;18.52;;;6.10;99.90;;;;;;5071386;28;20056;-73
2022/03/18 07:43:14;;;;;;;27.63;18.92;;;6.40;99.90;;;;;;5054850;28;20392;-72
2022/03/18 07:45:40;;;;;;;26.50;16.90;;;6.60;99.90;;;;;;5088279;28;20577;-73
2022/03/18 07:48:08;;;;;;;28.30;18.23;;;6.70;99.90;;;;;;5055589;28;20041;-72
2022/03/18 07:50:36;;;;;;;24.52;16.25;;;6.70;99.90;;;;;;5054608;28;20280;-73
2022/03/18 07:53:07;;;;;;;22.05;15.10;;;6.80;99.90;;;;;;5054505;28;20090;-73
2022/03/18 07:55:35;;;;;;;22.50;16.40;;;6.90;99.90;;;;;;5084709;28;20127;-72
2022/03/18 07:58:01;;;;;;;22.92;15.75;;;7.10;99.90;;;;;;5054753;28;20103;-72
2022/03/18 08:00:27;;;;;;;26.27;16.20;;;7.30;99.90;;;;;;5053873;28;20558;-73
2022/03/18 08:02:54;;;;;;;29.40;14.90;;;7.50;99.90;;;;;;5052584;28;20045;-72
2022/03/18 08:05:21;;;;;;;19.70;14.90;;;7.60;99.90;;;;;;5053686;28;20037;-73
2022/03/18 08:07:47;;;;;;;22.92;15.55;;;7.90;99.90;;;;;;5051797;28;20052;-72
2022/03/18 08:10:15;;;;;;;19.55;13.52;;;8.20;99.90;;;;;;5084523;28;20044;-73
2022/03/18 08:12:42;;;;;;;26.27;14.10;;;8.50;99.90;;;;;;5067782;28;20045;-72
2022/03/18 08:15:13;;;;;;;20.85;13.98;;;8.70;99.90;;;;;;5052623;28;20044;-72
2022/03/18 08:17:40;;;;;;;20.33;12.20;;;8.90;99.90;;;;;;5052304;28;20048;-72
2022/03/18 08:20:07;;;;;;;22.65;12.98;;;9.30;99.90;;;;;;5050867;28;20513;-72
2022/03/18 08:22:35;;;;;;;19.50;13.32;;;9.70;99.90;;;;;;5051256;28;20045;-73
2022/03/18 08:25:01;;;;;;;20.10;12.43;;;10.10;99.90;;;;;;5051152;28;20045;-72
2022/03/18 08:27:27;;;;;;;20.08;12.93;;;10.60;99.90;;;;;;5052248;28;20113;-73
2022/03/18 08:29:57;;;;;;;22.00;12.10;;;10.90;99.90;;;;;;5051094;28;20532;-72
2022/03/18 08:32:26;;;;;;;20.45;12.75;;;11.10;99.90;;;;;;5048479;28;20513;-72
2022/03/18 08:34:51;;;;;;;17.25;11.82;;;11.40;99.90;;;;;;5050855;28;20047;-72
2022/03/18 08:37:56;;;;;;;16.75;10.70;;;11.90;99.90;;;;;;5051068;28;20045;-73
2022/03/18 08:40:04;;;;;;;22.50;12.27;;;12.40;99.90;;;;;;5050693;28;20074;-73
2022/03/18 08:42:31;;;;;;;14.60;10.10;;;13.00;99.90;;;;;;5051960;28;20055;-72
2022/03/18 08:44:56;;;;;;;17.33;10.02;;;13.60;99.90;;;;;;5050744;28;20051;-72
2022/03/18 08:47:24;;;;;;;15.63;9.52;;;14.00;99.90;;;;;;5051976;28;20045;-72
2022/03/18 08:49:49;;;;;;;15.18;9.32;;;14.50;99.90;;;;;;5050571;28;20045;-72
2022/03/18 08:52:16;;;;;;;14.57;9.38;;;15.10;99.90;;;;;;5050692;28;20127;-72
2022/03/18 08:54:42;;;;;;;18.13;9.52;;;15.70;99.90;;;;;;5050477;28;20053;-72
2022/03/18 08:57:09;;;;;;;26.42;9.70;;;16.10;99.90;;;;;;5051886;28;20454;-72
2022/03/18 08:59:34;;;;;;;16.23;7.70;;;16.40;99.90;;;;;;5051686;28;20489;-72
2022/03/18 09:02:00;;;;;;;15.30;7.88;;;16.60;99.90;;;;;;5049325;28;20044;-72
2022/03/18 09:04:26;;;;;;;16.95;7.32;;;16.70;99.90;;;;;;5051796;28;20041;-72
2022/03/18 09:06:52;;;;;;;14.65;7.03;;;16.80;99.90;;;;;;5051646;28;20051;-72
2022/03/18 09:09:18;;;;;;;12.95;6.50;;;17.20;99.90;;;;;;5051727;28;20040;-72
2022/03/18 09:11:44;;;;;;;15.98;7.68;;;17.30;99.90;;;;;;5050423;28;20037;-72
2022/03/18 09:14:11;;;;;;;17.50;7.50;;;17.60;99.90;;;;;;5050562;28;20044;-72
2022/03/18 09:16:38;;;;;;;13.88;6.55;;;17.90;99.90;;;;;;5051814;28;20102;-72
2022/03/18 09:19:04;;;;;;;17.25;7.10;;;18.20;99.90;;;;;;5051744;28;20041;-72
2022/03/18 09:21:30;;;;;;;15.75;6.43;;;18.40;99.90;;;;;;5055513;28;20065;-72
2022/03/18 09:23:57;;;;;;;14.98;7.05;;;18.60;99.90;;;;;;5055680;28;20045;-73
2022/03/18 09:26:22;;;;;;;13.27;7.55;;;19.00;99.90;;;;;;5088280;28;20045;-73
2022/03/18 09:28:48;;;;;;;14.23;7.05;;;19.20;99.90;;;;;;5055464;28;20048;-73
2022/03/18 09:31:14;;;;;;;14.77;5.82;;;19.30;99.90;;;;;;5054759;28;20076;-72
2022/03/18 09:33:43;;;;;;;12.63;7.05;;;19.40;99.90;;;;;;5051839;28;20048;-72
2022/03/18 09:36:10;;;;;;;13.80;5.70;;;19.60;99.90;;;;;;5055677;28;20080;-72
2022/03/18 09:38:37;;;;;;;15.73;6.50;;;19.60;99.90;;;;;;5087688;28;20052;-72
2022/03/18 09:41:03;;;;;;;15.65;6.88;;;19.50;99.50;;;;;;5037598;28;20056;-72
2022/03/18 09:43:37;;;;;;;13.23;6.43;;;19.50;99.20;;;;;;5037537;28;20542;-72
2022/03/18 09:46:08;;;;;;;13.13;6.93;;;19.80;98.80;;;;;;5055529;28;20096;-72
2022/03/18 09:48:35;;;;;;;10.73;6.28;;;20.00;97.70;;;;;;5053753;28;20052;-72
2022/03/18 09:51:01;;;;;;;11.80;6.30;;;20.20;95.70;;;;;;5075218;28;20429;-72
2022/03/18 09:53:27;;;;;;;13.10;6.95;;;20.50;93.10;;;;;;5037204;28;20485;-72
2022/03/18 09:55:53;;;;;;;12.95;6.85;;;20.60;92.00;;;;;;5053922;28;20103;-72
2022/03/18 09:58:22;;;;;;;12.07;6.00;;;20.70;90.50;;;;;;5055435;28;20079;-72
2022/03/18 10:00:57;;;;;;;12.68;6.72;;;20.60;85.10;;;;;;5037116;28;20045;-72
2022/03/18 10:03:44;;;;;;;17.15;6.65;;;20.50;86.40;;;;;;5052783;28;20408;-72
2022/03/18 10:06:11;;;;;;;17.17;6.10;;;20.70;86.60;;;;;;5054529;28;20037;-72
2022/03/18 10:08:37;;;;;;;14.43;6.60;;;20.90;86.10;;;;;;5054932;28;20056;-72
2022/03/18 10:11:18;;;;;;;12.18;6.22;;;21.10;80.60;;;;;;5053865;28;20385;-72
2022/03/18 10:13:56;;;;;;;12.60;6.15;;;21.30;81.40;;;;;;5053721;28;20068;-72
2022/03/18 10:16:43;;;;;;;13.07;5.85;;;21.50;81.50;;;;;;5037369;28;20041;-72
2022/03/18 10:19:13;;;;;;;15.95;6.68;;;21.80;78.20;;;;;;5053316;28;20110;-73
2022/03/18 10:21:59;;;;;;;15.75;7.10;;;21.90;77.30;;;;;;5053418;28;20485;-72
2022/03/18 10:24:34;;;;;;;15.70;7.40;;;22.00;73.80;;;;;;5053595;28;20079;-73
2022/03/18 10:27:14;;;;;;;13.73;5.97;;;21.80;75.50;;;;;;5054510;28;20399;-72
2022/03/18 10:29:49;;;;;;;;;;;21.80;77.30;;;;;;5053683;28;20040;-72
2022/03/18 10:32:17;;;;;;;15.73;6.20;;;22.10;72.00;;;;;;5051704;28;19920;-72
2022/03/18 10:38:03;;;;;;;13.50;5.95;;;21.90;65.30;;;;;;5054356;28;20048;-72
2022/03/18 10:40:35;;;;;;;11.75;5.85;;;21.60;65.20;;;;;;5052287;28;20049;-72
2022/03/18 10:43:06;;;;;;;9.85;5.05;;;21.50;64.90;;;;;;5054316;28;20074;-72
2022/03/18 10:45:33;;;;;;;19.27;7.03;;;21.50;66.00;;;;;;5053238;28;20037;-72
2022/03/18 10:48:15;;;;;;;12.35;5.97;;;21.80;67.60;;;;;;5054133;28;20048;-72
2022/03/18 10:50:41;;;;;;;15.30;6.10;;;22.30;68.00;;;;;;5054132;28;20036;-72
2022/03/18 10:53:11;;;;;;;11.70;5.55;;;22.60;66.90;;;;;;5054190;28;20124;-72
2022/03/18 10:55:44;;;;;;;16.33;7.30;;;22.60;66.30;;;;;;5053052;28;20044;-72
2022/03/18 10:58:11;;;;;;;11.65;5.30;;;22.70;66.40;;;;;;5052738;28;20128;-72
2022/03/18 11:00:43;;;;;;;13.10;5.78;;;22.90;63.50;;;;;;5052626;28;20049;-72
2022/03/18 11:03:09;;;;;;;12.23;5.78;;;22.90;60.90;;;;;;5050637;28;20036;-73
2022/03/18 11:05:39;;;;;;;9.90;4.85;;;22.80;61.70;;;;;;5052613;28;20041;-72
2022/03/18 11:08:09;;;;;;;11.57;5.28;;;22.90;61.70;;;;;;5053900;28;20519;-71
2022/03/18 11:13:25;;;;;;;11.43;6.00;;;23.20;61.50;;;;;;5053788;28;20132;-71
2022/03/18 11:15:52;;;;;;;11.70;5.50;;;23.20;60.30;;;;;;5053718;28;20678;-71
2022/03/18 11:18:19;;;;;;;11.95;6.38;;;23.10;57.60;;;;;;5053676;28;20501;-71
2022/03/18 11:20:45;;;;;;;12.30;4.57;;;22.60;56.00;;;;;;5051762;28;20099;-71
2022/03/18 11:23:18;;;;;;;10.48;4.80;;;22.50;59.50;;;;;;5053664;28;20052;-71
2022/03/18 11:25:48;;;;;;;9.80;4.93;;;22.80;60.20;;;;;;5047858;28;20067;-72
2022/03/18 11:28:16;;;;;;;13.52;4.60;;;22.80;59.80;;;;;;5052623;28;20044;-69
2022/03/18 11:30:44;;;;;;;12.07;5.30;;;22.50;59.00;;;;;;5052219;28;20045;-69
2022/03/18 11:33:09;;;;;;;9.27;4.60;;;22.40;59.70;;;;;;5050997;28;20048;-70
2022/03/18 11:35:48;;;;;;;10.15;4.68;;;22.70;60.00;;;;;;5052395;28;20037;-69
2022/03/18 11:38:19;;;;;;;11.98;4.63;;;22.90;58.00;;;;;;5052592;28;20045;-70
2022/03/18 11:40:52;;;;;;;11.32;4.80;;;22.70;58.10;;;;;;5052133;28;20091;-69
2022/03/18 11:43:49;;;;;;;10.43;4.25;;;22.80;59.20;;;;;;5051360;28;20075;-69
2022/03/18 11:46:16;;;;;;;10.55;4.75;;;23.20;57.70;;;;;;5035396;28;20041;-69
2022/03/18 11:48:54;;;;;;;10.70;4.70;;;23.30;58.50;;;;;;5052038;28;20128;-69
2022/03/18 11:51:36;;;;;;;8.13;4.43;;;23.40;58.30;;;;;;5053366;28;20101;-69
2022/03/18 11:54:16;;;;;;;10.10;4.68;;;23.40;57.70;;;;;;5053325;28;20405;-69
2022/03/18 11:56:47;;;;;;;10.55;5.35;;;23.20;57.00;;;;;;5051955;28;20461;-71
2022/03/18 11:59:38;;;;;;;10.55;5.18;;;23.00;57.50;;;;;;5051780;28;20054;-70
2022/03/18 12:02:09;;;;;;;9.52;4.38;;;23.20;56.80;;;;;;5048219;28;20057;-70
2022/03/18 12:04:42;;;;;;;16.67;4.43;;;23.10;56.80;;;;;;5053018;28;20112;-69
2022/03/18 12:07:20;;;;;;;9.88;4.18;;;23.00;57.30;;;;;;5051574;28;20049;-70
2022/03/18 12:09:56;;;;;;;14.50;5.43;;;23.00;56.20;;;;;;5052853;28;20045;-70
2022/03/18 12:12:29;;;;;;;10.25;4.22;;;22.90;57.10;;;;;;5053001;28;20086;-69
2022/03/18 12:14:57;;;;;;;8.98;3.80;;;22.90;58.10;;;;;;5051569;28;20040;-70
2022/03/18 12:17:24;;;;;;;13.15;4.47;;;23.10;58.10;;;;;;5052628;28;20489;-72
2022/03/18 12:19:56;;;;;;;10.50;4.53;;;23.40;56.20;;;;;;5051599;28;20045;-70
2022/03/18 12:22:23;;;;;;;9.32;4.03;;;23.20;54.00;;;;;;5051090;28;20053;-72
2022/03/18 12:24:55;;;;;;;15.40;4.95;;;23.00;55.50;;;;;;5052689;28;20131;-70
2022/03/18 12:27:26;;;;;;;11.93;4.70;;;23.20;56.80;;;;;;5051333;28;20045;-71
2022/03/18 12:30:00;;;;;;;8.75;3.55;;;23.10;55.90;;;;;;5051446;28;20040;-71
2022/03/18 12:32:27;;;;;;;10.82;3.97;;;22.10;55.30;;;;;;5048724;28;20043;-71
2022/03/18 12:34:54;;;;;;;9.95;3.20;;;21.00;56.80;;;;;;5052533;28;20032;-71
2022/03/18 12:37:31;;;;;;;10.32;4.00;;;20.50;57.80;;;;;;5052165;28;20497;-70
2022/03/18 12:40:11;;;;;;;12.85;4.32;;;20.50;60.20;;;;;;5051316;28;20041;-71
2022/03/18 12:43:04;;;;;;;8.68;3.90;;;20.80;59.60;;;;;;5052081;28;20036;-70
2022/03/18 12:45:38;;;;;;;10.68;4.13;;;20.70;59.80;;;;;;5049118;28;20118;-71
2022/03/18 12:48:13;;;;;;;13.02;5.38;;;20.20;59.90;;;;;;5050835;28;20123;-70
2022/03/18 12:50:42;;;;;;;9.90;4.00;;;20.20;60.10;;;;;;5050857;28;20041;-70
2022/03/18 12:53:20;;;;;;;12.35;4.28;;;20.80;59.20;;;;;;5050850;28;20044;-71
2022/03/18 12:55:52;;;;;;;8.80;2.70;;;21.10;57.60;;;;;;5050493;28;20542;-70
2022/03/18 12:58:19;;;;;;;9.93;3.10;;;21.20;58.00;;;;;;5052138;28;20040;-71
2022/03/18 13:00:47;;;;;;;8.55;2.90;;;21.60;56.90;;;;;;5052076;28;20044;-71
2022/03/18 13:03:19;;;;;;;9.68;3.28;;;21.60;56.70;;;;;;5050428;28;20072;-71
2022/03/18 13:05:45;;;;;;;10.80;3.88;;;21.90;56.60;;;;;;5045673;28;20405;-71
2022/03/18 13:08:12;;;;;;;9.48;3.30;;;22.20;57.50;;;;;;5052169;28;20041;-71